Latest Coastal Weather Observations for Kingscote

IDS60701

Issued at 3:21 pm CDT Tuesday 3 March 2015 (issued every 10 minutes, with the page automatically refreshed every 10 minutes)

About coastal observations | Map of coastal stations | Coastal observations for SA | Marine services | Other Formats
Station Details ID: 022841 Name: KINGSCOTE AERO Lat: -35.71 Lon: 137.52 Height: 6.23 m
Data from the previous 72 hours. | See also: Recent months at Kingscote
Date/Time
CDT
Temp

°C
Wind Pressure Rain
since 9am
mm
Weather Cloud Vis
km
Sea
Height
m
Swell
Dir
 
Speed
knots
Gust
knots
hPa Trend Height
m
Period
s
Dir
03/03:00pm 23.4 SSE 11 15 1018.2 - 0.0 - Mostly clear 10 - - - -
03/02:30pm 22.6 SE 14 18 1018.5 - 0.0 - Partly cloudy 10 - - - -
03/02:00pm 21.6 SE 13 19 1018.3 - 0.0 - Partly cloudy 10 - - - -
03/01:30pm 22.6 SE 12 17 1018.7 - 0.0 - Partly cloudy 10 - - - -
03/01:00pm 21.1 SE 13 19 1019.0 - 0.0 - - 10 - - - -
03/12:30pm 21.4 SE 13 18 1019.4 - 0.0 - - 10 - - - -
03/12:00pm 21.1 SE 11 19 1019.7 - 0.0 - - 10 - - - -
03/11:30am 21.1 S 12 17 1020.0 - 0.0 - Partly cloudy 10 - - - -
03/11:00am 20.7 SSE 13 17 1020.1 - 0.0 - - 10 - - - -
03/10:30am 20.1 SSE 10 14 1019.9 - 0.0 - Partly cloudy 10 - - - -
03/10:00am 20.1 S 12 16 1019.5 - 0.0 - Partly cloudy 10 - - - -
03/09:30am 18.0 S 11 16 1019.7 - 0.0 - Partly cloudy 10 - - - -
03/09:00am 17.5 SSE 8 11 1019.4 - 0.0 - Partly cloudy 10 - - - -
03/08:30am 16.0 S 7 8 1019.2 - 0.0 - Partly cloudy 10 - - - -
03/08:00am 13.1 S 6 7 1019.0 - 0.0 - Partly cloudy 10 - - - -
03/07:30am 11.7 SSW 6 7 1018.6 - 0.0 - Partly cloudy 10 - - - -
03/07:00am 10.8 SSW 5 6 1018.2 - 0.0 - Partly cloudy 10 - - - -
03/06:30am 11.2 SSW 6 6 1017.8 - 0.0 - Partly cloudy 10 - - - -
03/06:00am 10.9 SSW 4 5 1017.3 - 0.0 - Partly cloudy 10 - - - -
03/05:30am 11.3 S 4 5 1017.2 - 0.0 - - 10 - - - -
03/05:00am 11.7 S 5 5 1017.0 - 0.0 - - 10 - - - -
03/04:30am 12.5 S 5 5 1017.0 - 0.0 - Partly cloudy 10 - - - -
03/04:00am 12.7 SSW 4 5 1016.9 - 0.0 - Partly cloudy 10 - - - -
03/03:30am 13.5 S 4 5 1016.9 - 0.0 - Partly cloudy 10 - - - -
03/03:00am 13.9 SSW 6 6 1016.8 - 0.0 - Partly cloudy 10 - - - -
03/02:30am 14.6 SSW 2 4 1017.1 - 0.0 - Partly cloudy 10 - - - -
03/02:00am 15.0 S 7 8 1017.3 - 0.0 - - 10 - - - -
03/01:30am 15.7 S 6 8 1017.3 - 0.0 - - 10 - - - -
03/01:00am 16.3 S 8 11 1017.6 - 0.0 - - 10 - - - -
03/12:30am 16.7 S 10 13 1017.5 - 0.0 - Partly cloudy 10 - - - -
03/12:00am 16.9 S 9 13 1017.7 - 0.0 - Cloudy 10 - - - -
 
Date/Time
CDT
Temp

°C
Wind Pressure Rain
since 9am
mm
Weather Cloud Vis
km
Sea
Height
m
Swell
Dir
 
Speed
knots
Gust
knots
hPa Trend Height
m
Period
s
Dir
02/11:30pm 16.6 S 7 8 1017.8 - 0.0 - - 10 - - - -
02/11:00pm 16.6 S 7 9 1017.9 - 0.0 - - 10 - - - -
02/10:30pm 16.8 S 8 11 1017.8 - 0.0 - Partly cloudy 10 - - - -
02/10:00pm 17.1 S 9 12 1017.9 - 0.0 - - 10 - - - -
02/09:30pm 17.2 S 9 11 1017.5 - 0.0 - - 10 - - - -
02/09:00pm 17.3 S 9 12 1016.9 - 0.0 - Cloudy 10 - - - -
02/08:30pm 17.3 S 11 13 1016.4 - 0.0 - Partly cloudy 10 - - - -
02/08:00pm 17.6 S 11 14 1016.0 - 0.0 - Partly cloudy 10 - - - -
02/07:30pm 17.9 S 15 18 1016.0 - 0.0 - Partly cloudy 10 - - - -
02/07:00pm 18.4 S 13 17 1015.6 - 0.0 - Partly cloudy 10 - - - -
02/06:30pm 18.9 S 15 19 1015.1 - 0.0 - Partly cloudy 10 - - - -
02/06:00pm 20.1 S 13 19 1014.7 - 0.0 - Partly cloudy 8 - - - -
02/05:30pm 20.5 SSW 15 20 1014.2 - 0.0 - - 10 - - - -
02/05:00pm 21.9 S 15 19 1014.0 - 0.0 - Partly cloudy 10 - - - -
02/04:53pm 22.7 S 13 18 1013.8 - 0.0 - Partly cloudy 9 - - - -
02/04:30pm 25.0 W 5 7 1013.4 - 0.0 - - 10 - - - -
02/04:00pm 24.5 NNW 5 8 1013.5 - 0.0 - - 10 - - - -
02/03:30pm 24.1 NNE 10 14 1013.9 - 0.0 - - 10 - - - -
02/03:00pm 24.7 NNE 5 8 1014.0 - 0.0 - Mostly clear 10 - - - -
02/02:30pm 24.3 ENE 5 10 1014.0 - 0.0 - - 10 - - - -
02/02:00pm 23.6 NNE 6 10 1014.3 - 0.0 - - 10 - - - -
02/01:30pm 23.0 S 3 6 1014.3 - 0.0 - - 10 - - - -
02/01:00pm 22.3 N 6 9 1014.8 - 0.0 - - 10 - - - -
02/12:30pm 21.8 ESE 3 7 1014.7 - 0.0 - - 10 - - - -
02/12:00pm 20.5 CALM 0 0 1015.3 - 0.0 - Mostly cloudy 10 - - - -
02/11:30am 20.2 ENE 5 7 1015.2 - 0.0 - - 10 - - - -
02/11:00am 19.7 ENE 6 8 1015.5 - 0.0 - - 10 - - - -
02/10:30am 19.2 E 5 7 1015.6 - 0.0 - - 10 - - - -
02/10:00am 18.4 SE 5 7 1015.9 - 0.0 - - 10 - - - -
02/09:30am 17.3 S 7 9 1016.0 - 0.0 - - 10 - - - -
02/09:00am 16.1 S 7 9 1016.5 - 0.0 - Partly cloudy 10 - - - -
02/08:30am 14.7 SW 6 7 1016.4 - 0.0 - - 10 - - - -
02/08:00am 12.3 SW 7 8 1016.2 - 0.0 - - 10 - - - -
02/07:30am 11.8 SW 6 6 1015.8 - 0.0 - - 10 - - - -
02/07:00am 11.1 WSW 6 8 1015.7 - 0.0 - - 10 - - - -
02/06:30am 10.7 SW 5 6 1015.5 - 0.0 - - 10 - - - -
02/06:00am 10.5 SW 4 5 1015.6 - 0.0 - Cloudy 10 - - - -
02/05:30am 9.9 CALM 0 0 1015.3 - 0.0 - - 10 - - - -
02/05:00am 9.4 S 5 6 1014.9 - 0.0 - - 10 - - - -
02/04:30am 8.7 SW 4 5 1015.3 - 0.0 - - 10 - - - -
02/04:00am 7.7 S 5 7 1015.6 - 0.0 - - 10 - - - -
02/03:30am 7.5 SW 5 6 1015.5 - 0.0 - - 10 - - - -
02/03:00am 8.6 CALM 0 0 1015.9 - 0.0 - - 10 - - - -
02/02:30am 8.8 SW 1 3 1016.4 - 0.0 - - 10 - - - -
02/02:00am 9.5 SSW 4 4 1017.0 - 0.0 - - 10 - - - -
02/01:30am 9.5 SW 5 5 1017.7 - 0.0 - - 10 - - - -
02/01:00am 9.0 SW 7 8 1017.7 - 0.0 - - 10 - - - -
02/12:30am 9.4 SSW 5 6 1017.8 - 0.0 - - 10 - - - -
02/12:00am 11.6 SSE 5 5 1017.6 - 0.0 - - 10 - - - -
 
Date/Time
CDT
Temp

°C
Wind Pressure Rain
since 9am
mm
Weather Cloud Vis
km
Sea
Height
m
Swell
Dir
 
Speed
knots
Gust
knots
hPa Trend Height
m
Period
s
Dir
01/11:30pm 12.7 SE 5 6 1017.7 - 0.0 - - 10 - - - -
01/11:00pm 12.9 SE 5 6 1017.9 - 0.0 - - 10 - - - -
01/10:30pm 12.9 ESE 6 8 1018.0 - 0.0 - - 10 - - - -
01/10:00pm 13.6 SE 7 8 1018.4 - 0.0 - - 10 - - - -
01/09:30pm 13.9 SE 6 8 1018.5 - 0.0 - - 10 - - - -
01/09:00pm 14.4 SSE 7 9 1018.5 - 0.0 - - 10 - - - -
01/08:30pm 15.2 SE 8 9 1018.3 - 0.0 - - 10 - - - -
01/08:00pm 16.1 SSE 11 14 1018.5 - 0.0 - Partly cloudy 10 - - - -
01/07:30pm 17.0 SSE 10 13 1018.0 - 0.0 - - 10 - - - -
01/07:00pm 18.3 SSE 13 15 1017.9 - 0.0 - Cloudy 10 - - - -
01/06:30pm 18.5 SSE 12 15 1017.6 - 0.0 - Cloudy 10 - - - -
01/06:00pm 19.0 SSE 10 14 1017.3 - 0.0 - Mostly cloudy 10 - - - -
01/05:30pm 19.9 SE 13 18 1017.1 - 0.0 - Partly cloudy 10 - - - -
01/05:00pm 19.1 SE 14 20 1017.5 - 0.0 - Partly cloudy 10 - - - -
01/04:30pm 19.9 SE 12 16 1017.5 - 0.0 - Cloudy 10 - - - -
01/04:00pm 21.0 SE 13 18 1017.4 - 0.0 - Partly cloudy 10 - - - -
01/03:30pm 20.7 SE 11 18 1017.7 - 0.0 - Cloudy 10 - - - -
01/03:00pm 22.1 SE 13 18 1017.6 - 0.0 - Mostly clear 10 - - - -
01/02:30pm 20.0 SE 14 19 1018.0 - 0.0 - Partly cloudy 10 - - - -
01/02:00pm 21.7 SSE 17 23 1017.9 - 0.0 - Partly cloudy 10 - - - -
01/01:30pm 20.2 SE 14 20 1018.0 - 0.0 - Partly cloudy 10 - - - -
01/01:00pm 19.3 SE 16 20 1018.3 - 0.0 - Cloudy 10 - - - -
01/12:30pm 19.4 SSE 14 19 1018.6 - 0.0 - Partly cloudy 10 - - - -
01/12:00pm 18.8 SSE 15 22 1018.7 - 0.0 - Cloudy 10 - - - -
01/11:30am 19.6 SSE 13 19 1018.5 - 0.0 - Partly cloudy 10 - - - -
01/11:00am 19.5 SE 13 18 1018.5 - 0.0 - Partly cloudy 10 - - - -
01/10:30am 19.1 SSE 13 18 1017.9 - 0.0 - Partly cloudy 10 - - - -
01/10:00am 18.8 S 14 18 1017.6 - 0.0 - Partly cloudy 10 - - - -
01/09:30am 19.4 S 15 19 1017.3 - 0.0 - Partly cloudy 10 - - - -
01/09:00am 17.2 S 14 17 1017.1 - 1.0 - Cloudy 10 - - - -
01/08:30am 16.9 S 10 14 1016.7 - 1.0 - - 10 - - - -
01/08:00am 15.4 S 8 11 1016.3 - 1.0 - Partly cloudy 10 - - - -
01/07:30am 15.1 S 10 14 1015.6 - 1.0 - Cloudy 10 - - - -
01/07:00am 14.6 S 9 11 1015.1 - 1.0 - Partly cloudy 10 - - - -
01/06:30am 14.7 S 7 10 1014.6 - 1.0 - Partly cloudy 10 - - - -
01/06:00am 13.6 SSW 7 8 1014.3 - 1.0 - Mostly clear 10 - - - -
01/05:30am 14.2 S 9 14 1014.0 - 1.0 - - 10 - - - -
01/05:00am 14.8 SSW 7 9 1013.7 - 1.0 - Cloudy 10 - - - -
01/04:30am 14.7 SSW 9 13 1013.6 - 1.0 - Partly cloudy 10 - - - -
01/04:04am 15.0 SSW 9 21 1013.6 - 1.0 - Partly cloudy 10 - - - -
01/04:00am 14.0 SW 4 10 1013.6 - 1.0 - Partly cloudy 10 - - - -
01/03:30am 12.9 WSW 6 7 1013.3 - 1.0 - Cloudy 10 - - - -
01/03:00am 12.8 SW 7 7 1013.2 - 1.0 - Mostly clear 10 - - - -
01/02:30am 13.7 SW 7 8 1013.2 - 1.0 - Partly cloudy 10 - - - -
01/02:00am 15.5 SW 9 11 1013.2 - 1.0 - Cloudy 10 - - - -
01/01:30am 15.2 SW 8 11 1013.2 - 1.0 - Partly cloudy 10 - - - -
01/01:00am 16.1 SSW 12 16 1013.2 - 1.0 - Partly cloudy 10 - - - -
01/12:30am 15.4 SSW 7 10 1013.2 - 1.0 - Partly cloudy 10 - - - -
01/12:00am 15.8 SW 8 11 1013.1 - 1.0 - Mostly clear 10 - - - -
 
Date/Time
CDT
Temp

°C
Wind Pressure Rain
since 9am
mm
Weather Cloud Vis
km
Sea
Height
m
Swell
Dir
 
Speed
knots
Gust
knots
hPa Trend Height
m
Period
s
Dir
28/11:30pm 16.3 SSW 11 17 1013.0 - 1.0 - Partly cloudy 10 - - - -
28/11:00pm 16.5 SW 9 13 1012.8 - 1.0 - Partly cloudy 10 - - - -
28/10:30pm 16.7 SW 8 11 1012.6 - 1.0 - Partly cloudy 10 - - - -
28/10:00pm 16.4 SW 9 13 1012.4 - 1.0 - Partly cloudy 10 - - - -
28/09:30pm 17.0 SW 10 14 1012.0 - 1.0 - Partly cloudy 10 - - - -
28/09:00pm 17.6 SW 14 20 1011.4 - 1.0 - Partly cloudy 10 - - - -
28/08:30pm 18.0 SSW 11 16 1010.8 - 1.0 - Partly cloudy 10 - - - -
28/08:00pm 17.6 SSW 12 15 1010.1 - 1.0 - - 10 - - - -
28/07:30pm 18.3 SSW 18 24 1009.7 - 1.0 - - 10 - - - -
28/07:00pm 18.7 SSW 18 22 1009.4 - 1.0 - Partly cloudy 10 - - - -
28/06:30pm 19.7 SSW 19 26 1008.9 - 1.0 - Partly cloudy 10 - - - -
28/06:00pm 20.9 SSW 19 24 1008.4 - 1.0 - Mostly clear 10 - - - -
28/05:30pm 20.8 SSW 19 24 1007.8 - 1.0 - Partly cloudy 10 - - - -
28/05:00pm 19.9 SSW 17 22 1007.5 - 1.0 - Partly cloudy 10 - - - -
28/04:53pm 19.9 SSW 17 22 1007.4 - 1.0 - Partly cloudy 10 - - - -
28/04:38pm 19.6 SSW 16 21 1007.5 - 1.0 - Partly cloudy 10 - - - -
28/04:30pm 19.7 SSW 14 19 1007.3 - 1.0 - Partly cloudy 10 - - - -
28/04:00pm 19.9 SSW 14 18 1006.8 - 1.0 - Partly cloudy 10 - - - -
28/03:30pm 19.7 SSW 12 16 1006.8 - 1.0 - Partly cloudy 10 - - - -

Other Formats:

Comma delimited format used in spreadsheet applications
http://www.bom.gov.au/fwo/IDS60701/IDS60701.95807.axf

JavaScript Object Notation format (JSON) in row-major order
http://www.bom.gov.au/fwo/IDS60701/IDS60701.95807.json